createdAt,value
2022-09-14T00:01:36.466Z,9.65
2022-09-14T00:04:08.676Z,9.74
2022-09-14T00:06:37.415Z,9.76
2022-09-14T00:09:07.718Z,9.67
2022-09-14T00:11:37.678Z,9.69
2022-09-14T00:14:08.781Z,9.59
2022-09-14T00:16:41.704Z,9.71
2022-09-14T00:19:17.593Z,9.69
2022-09-14T00:21:46.347Z,9.79
2022-09-14T00:24:14.833Z,9.66
2022-09-14T00:26:43.429Z,9.65
2022-09-14T00:29:13.644Z,9.82
2022-09-14T00:31:42.539Z,9.56
2022-09-14T00:34:14.614Z,9.66
2022-09-14T00:36:46.521Z,9.62
2022-09-14T00:39:16.314Z,9.61
2022-09-14T00:41:48.612Z,9.54
2022-09-14T00:44:55.193Z,9.54
2022-09-14T00:47:26.146Z,9.48
2022-09-14T00:49:55.402Z,9.62
2022-09-14T00:52:27.177Z,9.55
2022-09-14T00:54:59.015Z,9.42
2022-09-14T00:57:30.574Z,9.41
2022-09-14T00:59:59.703Z,9.49
2022-09-14T01:02:30.153Z,9.62
2022-09-14T01:04:59.116Z,9.49
2022-09-14T01:07:43.285Z,9.46
2022-09-14T01:10:27.853Z,9.39
2022-09-14T01:13:09.822Z,9.44
2022-09-14T01:15:48.243Z,9.51
2022-09-14T01:18:24.323Z,9.45
2022-09-14T01:20:58.338Z,9.47
2022-09-14T01:23:34.957Z,9.45
2022-09-14T01:26:21.287Z,9.50
2022-09-14T01:28:56.024Z,9.49
2022-09-14T01:31:30.675Z,9.48
2022-09-14T01:34:07.042Z,9.36
2022-09-14T01:36:38.223Z,9.40
2022-09-14T01:39:08.137Z,9.46
2022-09-14T01:41:38.504Z,9.46
2022-09-14T01:44:13.770Z,9.39
2022-09-14T01:46:47.603Z,9.36
2022-09-14T01:49:20.639Z,9.30
2022-09-14T01:51:51.695Z,9.34
2022-09-14T01:54:23.641Z,9.44
2022-09-14T01:56:57.275Z,9.43
2022-09-14T01:59:32.002Z,9.36
2022-09-14T02:02:06.814Z,9.21
2022-09-14T02:04:40.619Z,9.16
2022-09-14T02:07:09.609Z,9.19
2022-09-14T02:09:39.121Z,9.31
2022-09-14T02:12:08.554Z,9.22
2022-09-14T02:14:38.590Z,9.22
2022-09-14T02:17:08.462Z,9.16
2022-09-14T02:19:42.012Z,9.18
2022-09-14T02:22:10.702Z,9.05
2022-09-14T02:24:39.312Z,9.22
2022-09-14T02:27:08.741Z,9.11
2022-09-14T02:29:39.101Z,9.16
2022-09-14T02:32:20.683Z,9.04
2022-09-14T02:34:59.466Z,9.16
2022-09-14T02:37:38.896Z,9.04
2022-09-14T02:40:14.711Z,9.02
2022-09-14T02:42:54.395Z,9.13
2022-09-14T02:45:31.810Z,9.09
2022-09-14T02:48:08.786Z,9.06
2022-09-14T02:50:44.438Z,9.00
2022-09-14T02:53:19.314Z,9.10
2022-09-14T02:55:52.758Z,9.05
2022-09-14T02:58:21.974Z,8.99
2022-09-14T03:00:52.853Z,9.07
2022-09-14T03:03:22.479Z,9.12
2022-09-14T03:05:51.123Z,9.22
2022-09-14T03:08:19.965Z,9.23
2022-09-14T03:10:49.124Z,9.26
2022-09-14T03:13:17.945Z,9.30
2022-09-14T03:15:47.090Z,9.21
2022-09-14T03:18:17.540Z,9.24
2022-09-14T03:20:46.377Z,9.24
2022-09-14T03:23:15.470Z,9.21
2022-09-14T03:25:45.516Z,9.19
2022-09-14T03:28:14.479Z,9.18
2022-09-14T03:30:43.459Z,9.30
2022-09-14T03:33:12.398Z,9.29
2022-09-14T03:35:42.743Z,9.36
2022-09-14T03:38:11.522Z,9.38
2022-09-14T03:40:40.840Z,9.35
2022-09-14T03:43:09.816Z,9.30
2022-09-14T03:45:38.817Z,9.38
2022-09-14T03:48:07.590Z,9.33
2022-09-14T03:50:36.241Z,9.44
2022-09-14T03:53:06.464Z,9.42
2022-09-14T03:55:35.488Z,9.49
2022-09-14T03:58:04.269Z,9.49
2022-09-14T04:00:32.961Z,9.52
2022-09-14T04:03:02.255Z,9.41
2022-09-14T04:05:31.065Z,9.45
2022-09-14T04:07:59.919Z,9.47
2022-09-14T04:10:30.185Z,9.40
2022-09-14T04:13:02.124Z,9.40
2022-09-14T04:15:31.865Z,9.36
2022-09-14T04:18:00.539Z,9.50
2022-09-14T04:20:29.460Z,9.54
2022-09-14T04:22:58.725Z,9.51
2022-09-14T04:25:27.482Z,9.59
2022-09-14T04:28:19.139Z,9.61
2022-09-14T04:30:46.725Z,9.51
2022-09-14T04:33:15.338Z,9.60
2022-09-14T04:35:45.022Z,9.49
2022-09-14T04:38:13.686Z,9.51
2022-09-14T04:40:43.223Z,9.63
2022-09-14T04:43:13.271Z,9.62
2022-09-14T04:45:42.218Z,9.56
2022-09-14T04:48:10.931Z,9.57
2022-09-14T04:50:39.618Z,9.60
2022-09-14T04:53:08.237Z,9.52
2022-09-14T04:55:37.187Z,9.65
2022-09-14T04:58:06.345Z,9.58
2022-09-14T05:00:37.829Z,9.59
2022-09-14T05:03:06.916Z,9.71
2022-09-14T05:05:41.899Z,9.77
2022-09-14T05:08:13.019Z,9.87
2022-09-14T05:10:41.609Z,9.75
2022-09-14T05:13:10.418Z,9.68
2022-09-14T05:15:40.548Z,9.69
2022-09-14T05:18:09.245Z,9.72
2022-09-14T05:20:39.185Z,9.77
2022-09-14T05:23:08.430Z,9.62
2022-09-14T05:25:37.166Z,9.68
2022-09-14T05:28:06.149Z,9.82
2022-09-14T05:30:34.845Z,9.68
2022-09-14T05:33:05.155Z,9.61
2022-09-14T05:35:33.907Z,9.71
2022-09-14T05:38:02.650Z,9.79
2022-09-14T05:40:31.513Z,9.77
2022-09-14T05:43:00.138Z,9.79
2022-09-14T05:45:28.787Z,9.74
2022-09-14T05:47:57.618Z,9.79
2022-09-14T05:50:27.698Z,9.79
2022-09-14T05:52:56.969Z,9.88
2022-09-14T05:55:25.752Z,9.81
2022-09-14T05:57:54.594Z,9.86
2022-09-14T06:00:23.304Z,9.90
2022-09-14T06:02:53.902Z,9.84
2022-09-14T06:05:25.514Z,9.88
2022-09-14T06:07:56.427Z,9.97
2022-09-14T06:10:25.236Z,9.82
2022-09-14T06:12:55.609Z,9.95
2022-09-14T06:15:24.900Z,9.95
2022-09-14T06:17:53.580Z,9.89
2022-09-14T06:20:22.260Z,10.01
2022-09-14T06:22:51.190Z,9.97
2022-09-14T06:25:21.479Z,9.97
2022-09-14T06:27:50.123Z,9.93
2022-09-14T06:30:18.806Z,9.89
2022-09-14T06:32:47.569Z,9.92
2022-09-14T06:35:16.447Z,10.00
2022-09-14T06:37:45.123Z,10.06
2022-09-14T06:40:13.861Z,10.00
2022-09-14T06:42:44.099Z,10.11
2022-09-14T06:45:12.780Z,10.19
2022-09-14T06:47:41.288Z,10.15
2022-09-14T06:50:10.482Z,10.11
2022-09-14T06:52:40.359Z,10.21
2022-09-14T06:55:10.024Z,10.11
2022-09-14T06:57:42.850Z,10.09
2022-09-14T07:00:14.821Z,10.16
2022-09-14T07:02:43.748Z,10.12
2022-09-14T07:05:13.099Z,10.04
2022-09-14T07:07:41.778Z,10.15
2022-09-14T07:10:12.019Z,10.25
2022-09-14T07:12:40.793Z,10.22
2022-09-14T07:15:10.638Z,10.30
2022-09-14T07:17:40.822Z,10.27
2022-09-14T07:20:11.497Z,10.30
2022-09-14T07:22:40.310Z,10.40
2022-09-14T07:25:10.439Z,10.29
2022-09-14T07:27:40.136Z,10.35
2022-09-14T07:30:11.507Z,10.23
2022-09-14T07:32:41.809Z,10.28
2022-09-14T07:35:11.816Z,10.36
2022-09-14T07:37:40.696Z,10.38
2022-09-14T07:40:11.930Z,10.32
2022-09-14T07:42:40.681Z,10.49
2022-09-14T07:45:10.341Z,10.53
2022-09-14T07:47:40.560Z,10.57
2022-09-14T07:50:11.458Z,10.65
2022-09-14T07:52:40.993Z,10.65
2022-09-14T07:55:12.680Z,10.75
2022-09-14T07:57:55.661Z,10.83
2022-09-14T08:00:25.931Z,10.84
2022-09-14T08:02:58.590Z,10.72
2022-09-14T08:05:27.883Z,10.63
2022-09-14T08:07:56.601Z,10.64
2022-09-14T08:10:26.278Z,10.76
2022-09-14T08:12:56.085Z,10.76
2022-09-14T08:15:28.399Z,10.82
2022-09-14T08:17:58.839Z,10.89
2022-09-14T08:20:27.470Z,10.81
2022-09-14T08:22:56.120Z,10.87
2022-09-14T08:25:24.820Z,10.90
2022-09-14T08:27:53.300Z,10.96
2022-09-14T08:30:21.821Z,10.94
2022-09-14T08:32:50.409Z,11.15
2022-09-14T08:35:35.436Z,11.34
2022-09-14T08:38:08.989Z,11.46
2022-09-14T08:40:45.121Z,11.75
2022-09-14T08:43:15.878Z,11.82
2022-09-14T08:45:45.537Z,11.87
2022-09-14T08:48:24.538Z,11.94
2022-09-14T08:50:55.177Z,12.07
2022-09-14T08:53:25.959Z,12.06
2022-09-14T08:56:00.598Z,12.04
2022-09-14T08:58:45.052Z,12.02
2022-09-14T09:01:23.558Z,12.08
2022-09-14T09:04:10.237Z,12.02
2022-09-14T09:06:50.428Z,11.97
2022-09-14T09:09:26.261Z,11.98
2022-09-14T09:11:57.082Z,11.92
2022-09-14T09:14:31.308Z,11.71
2022-09-14T09:17:03.223Z,11.87
2022-09-14T09:19:38.380Z,11.82
2022-09-14T09:22:15.838Z,11.95
2022-09-14T09:25:23.828Z,12.08
2022-09-14T09:27:55.550Z,12.20
2022-09-14T09:30:24.386Z,12.39
2022-09-14T09:32:53.673Z,12.44
2022-09-14T09:35:45.315Z,12.48
2022-09-14T09:38:25.183Z,12.47
2022-09-14T09:40:57.099Z,12.62
2022-09-14T09:43:47.862Z,12.54
2022-09-14T09:46:14.981Z,12.61
2022-09-14T09:48:46.629Z,12.55
2022-09-14T09:51:20.877Z,12.64
2022-09-14T09:53:56.495Z,12.55
2022-09-14T09:56:27.214Z,12.57
2022-09-14T09:58:56.577Z,12.63
2022-09-14T10:01:30.227Z,12.56
2022-09-14T10:04:17.806Z,12.65
2022-09-14T10:06:48.610Z,12.66
2022-09-14T10:09:21.093Z,12.70
2022-09-14T10:11:58.606Z,12.66
2022-09-14T10:14:31.561Z,12.78
2022-09-14T10:17:08.516Z,12.79
2022-09-14T10:19:38.119Z,12.75
2022-09-14T10:22:26.878Z,12.56
2022-09-14T10:25:02.153Z,12.79
2022-09-14T10:27:48.743Z,12.75
2022-09-14T10:30:19.965Z,12.77
2022-09-14T10:33:02.369Z,12.68
2022-09-14T10:35:42.347Z,12.65
2022-09-14T10:38:32.529Z,12.54
2022-09-14T10:41:14.957Z,12.58
2022-09-14T10:44:05.600Z,12.58
2022-09-14T10:46:44.554Z,12.55
2022-09-14T10:49:32.197Z,12.48
2022-09-14T10:52:17.350Z,12.56
2022-09-14T10:55:09.467Z,12.58
2022-09-14T10:57:50.471Z,12.51
2022-09-14T11:00:20.748Z,12.67
2022-09-14T11:03:09.459Z,12.72
2022-09-14T11:05:41.608Z,12.85
2022-09-14T11:08:24.527Z,12.90
2022-09-14T11:11:10.693Z,12.98
2022-09-14T11:14:04.327Z,13.02
2022-09-14T11:17:01.989Z,13.02
2022-09-14T11:19:40.003Z,13.14
2022-09-14T11:22:22.430Z,12.94
2022-09-14T11:24:58.023Z,12.90
2022-09-14T11:27:31.769Z,12.92
2022-09-14T11:30:06.074Z,12.90
2022-09-14T11:32:40.647Z,12.79
2022-09-14T11:35:17.750Z,12.73
2022-09-14T11:37:50.928Z,12.89
2022-09-14T11:40:25.092Z,12.83
2022-09-14T11:43:01.409Z,12.90
2022-09-14T11:45:37.030Z,12.97
2022-09-14T11:48:41.402Z,12.87
2022-09-14T11:51:08.449Z,12.94
2022-09-14T11:53:38.049Z,13.03
2022-09-14T11:56:07.412Z,13.11
2022-09-14T11:58:36.669Z,13.02
2022-09-14T12:01:28.467Z,12.90
2022-09-14T12:04:18.376Z,12.90
2022-09-14T12:06:50.708Z,12.86
2022-09-14T12:09:42.499Z,13.01
2022-09-14T12:12:35.313Z,13.10
2022-09-14T12:15:05.877Z,13.07
2022-09-14T12:17:41.021Z,12.94
2022-09-14T12:20:33.161Z,12.88
2022-09-14T12:23:23.922Z,12.85
2022-09-14T12:26:39.179Z,12.93
2022-09-14T12:29:27.920Z,13.02
2022-09-14T12:32:07.308Z,13.06
2022-09-14T12:34:37.421Z,13.00
2022-09-14T12:37:31.820Z,13.00
2022-09-14T12:40:36.662Z,13.03
2022-09-14T12:43:44.608Z,13.07
2022-09-14T12:46:33.306Z,13.16
2022-09-14T12:49:03.670Z,13.17
2022-09-14T12:51:45.249Z,13.19
2022-09-14T12:54:29.127Z,13.06
2022-09-14T12:57:10.389Z,13.02
2022-09-14T12:59:46.647Z,13.15
2022-09-14T13:02:44.666Z,13.04
2022-09-14T13:05:17.371Z,13.08
2022-09-14T13:07:48.388Z,13.14
2022-09-14T13:10:22.112Z,13.03
2022-09-14T13:12:52.308Z,13.01
2022-09-14T13:15:24.607Z,13.06
2022-09-14T13:18:08.091Z,13.05
2022-09-14T13:20:37.369Z,13.02
2022-09-14T13:23:21.302Z,12.93
2022-09-14T13:25:50.938Z,13.05
2022-09-14T13:28:21.520Z,13.01
2022-09-14T13:30:56.645Z,13.09
2022-09-14T13:33:25.761Z,13.08
2022-09-14T13:35:56.657Z,13.04
2022-09-14T13:38:30.596Z,13.07
2022-09-14T13:41:08.337Z,13.00
2022-09-14T13:43:37.224Z,12.92
2022-09-14T13:46:08.266Z,13.07
2022-09-14T13:48:40.744Z,13.11
2022-09-14T13:51:10.562Z,13.13
2022-09-14T13:53:42.990Z,13.18
2022-09-14T13:56:20.037Z,13.11
2022-09-14T13:58:50.525Z,13.07
2022-09-14T14:01:28.210Z,13.17
2022-09-14T14:03:58.564Z,13.26
2022-09-14T14:06:29.927Z,13.33
2022-09-14T14:09:07.230Z,13.37
2022-09-14T14:11:39.373Z,13.43
2022-09-14T14:14:13.773Z,13.48
2022-09-14T14:16:42.833Z,13.49
2022-09-14T14:19:29.997Z,13.63
2022-09-14T14:22:20.872Z,13.61
2022-09-14T14:27:45.200Z,13.52
2022-09-14T14:30:17.286Z,13.55
2022-09-14T14:32:51.181Z,13.57
2022-09-14T14:35:22.768Z,13.48
2022-09-14T14:37:51.888Z,13.61
2022-09-14T14:40:22.230Z,13.55
2022-09-14T14:42:51.966Z,13.53
2022-09-14T14:45:22.884Z,13.37
2022-09-14T14:47:51.876Z,13.44
2022-09-14T14:50:23.479Z,13.54
2022-09-14T14:52:52.975Z,13.46
2022-09-14T14:55:24.643Z,13.45
2022-09-14T14:57:53.532Z,13.49
2022-09-14T15:00:25.857Z,13.52
2022-09-14T15:02:54.632Z,13.49
2022-09-14T15:05:24.155Z,13.44
2022-09-14T15:07:55.293Z,13.28
2022-09-14T15:10:27.766Z,13.46
2022-09-14T15:12:56.768Z,13.29
2022-09-14T15:15:27.844Z,13.38
2022-09-14T15:17:56.706Z,13.41
2022-09-14T15:20:25.606Z,13.36
2022-09-14T15:22:54.587Z,13.37
2022-09-14T15:25:27.566Z,13.46
2022-09-14T15:27:56.324Z,13.41
2022-09-14T15:30:24.914Z,13.37
2022-09-14T15:32:53.594Z,13.30
2022-09-14T15:35:22.196Z,13.20
2022-09-14T15:37:51.131Z,13.20
2022-09-14T15:40:20.036Z,13.28
2022-09-14T15:42:50.596Z,13.31
2022-09-14T15:45:19.705Z,13.31
2022-09-14T15:47:48.405Z,13.16
2022-09-14T15:50:17.267Z,13.13
2022-09-14T15:52:46.146Z,13.05
2022-09-14T15:55:14.744Z,13.12
2022-09-14T15:57:43.486Z,13.07
2022-09-14T16:00:15.845Z,13.03
2022-09-14T16:02:50.746Z,12.99
2022-09-14T16:05:19.705Z,12.87
2022-09-14T16:07:48.326Z,12.94
2022-09-14T16:10:17.165Z,12.93
2022-09-14T16:12:45.885Z,13.05
2022-09-14T16:15:16.007Z,13.00
2022-09-14T16:17:44.666Z,12.82
2022-09-14T16:20:14.107Z,12.87
2022-09-14T16:22:42.745Z,12.92
2022-09-14T16:25:11.628Z,12.88
2022-09-14T16:27:40.828Z,12.76
2022-09-14T16:30:10.865Z,12.64
2022-09-14T16:32:41.309Z,12.62
2022-09-14T16:35:10.705Z,12.66
2022-09-14T16:37:39.389Z,12.79
2022-09-14T16:40:09.662Z,12.57
2022-09-14T16:42:38.266Z,12.50
2022-09-14T16:45:08.582Z,12.47
2022-09-14T16:47:38.055Z,12.40
2022-09-14T16:50:08.565Z,12.51
2022-09-14T16:52:37.076Z,12.45
2022-09-14T16:55:06.597Z,12.50
2022-09-14T16:57:35.170Z,12.51
2022-09-14T17:00:04.261Z,12.48
2022-09-14T17:02:33.212Z,12.42
2022-09-14T17:05:02.237Z,12.47
2022-09-14T17:07:32.157Z,12.50
2022-09-14T17:10:00.888Z,12.37
2022-09-14T17:12:29.405Z,12.41
2022-09-14T17:14:58.045Z,12.33
2022-09-14T17:17:26.692Z,12.30
2022-09-14T17:19:55.246Z,12.40
2022-09-14T17:22:23.735Z,12.37
2022-09-14T17:24:53.901Z,12.30
2022-09-14T17:27:22.578Z,12.43
2022-09-14T17:29:51.200Z,12.33
2022-09-14T17:32:20.019Z,12.38
2022-09-14T17:34:48.659Z,12.42
2022-09-14T17:37:17.226Z,12.37
2022-09-14T17:39:45.843Z,12.38
2022-09-14T17:42:16.101Z,12.20
2022-09-14T17:44:44.919Z,12.01
2022-09-14T17:47:13.690Z,12.07
2022-09-14T17:49:42.478Z,12.02
2022-09-14T17:52:12.298Z,12.03
2022-09-14T17:54:40.859Z,11.95
2022-09-14T17:57:09.618Z,11.84
2022-09-14T17:59:39.679Z,11.84
2022-09-14T18:02:08.381Z,11.98
2022-09-14T18:04:37.218Z,11.97
2022-09-14T18:07:06.819Z,11.99
2022-09-14T18:09:36.039Z,12.00
2022-09-14T18:12:05.281Z,12.08
2022-09-14T18:14:33.983Z,12.02
2022-09-14T18:17:04.159Z,12.10
2022-09-14T18:19:32.979Z,12.11
2022-09-14T18:22:01.543Z,12.18
2022-09-14T18:24:30.201Z,12.21
2022-09-14T18:26:58.902Z,12.11
2022-09-14T18:29:29.998Z,12.14
2022-09-14T18:31:58.809Z,12.09
2022-09-14T18:34:29.320Z,12.19
2022-09-14T18:36:58.119Z,12.18
2022-09-14T18:39:26.790Z,12.21
2022-09-14T18:41:56.601Z,12.19
2022-09-14T18:44:26.378Z,12.10
2022-09-14T18:46:55.290Z,12.03
2022-09-14T18:49:23.951Z,12.09
2022-09-14T18:51:53.959Z,12.17
2022-09-14T18:54:27.464Z,12.11
2022-09-14T18:56:56.588Z,12.18
2022-09-14T18:59:25.187Z,12.21
2022-09-14T19:01:54.026Z,12.19
2022-09-14T19:04:22.759Z,12.18
2022-09-14T19:06:51.807Z,12.12
2022-09-14T19:09:22.125Z,12.13
2022-09-14T19:11:50.882Z,12.05
2022-09-14T19:14:20.842Z,12.09
2022-09-14T19:16:50.705Z,12.14
2022-09-14T19:19:21.427Z,12.09
2022-09-14T19:21:50.205Z,12.00
2022-09-14T19:24:19.108Z,12.04
2022-09-14T19:26:51.317Z,11.99
2022-09-14T19:29:23.238Z,11.83
2022-09-14T19:31:52.841Z,11.91
2022-09-14T19:34:22.759Z,11.90
2022-09-14T19:36:53.926Z,11.72
2022-09-14T19:39:23.086Z,11.73
2022-09-14T19:41:53.723Z,11.46
2022-09-14T19:44:23.790Z,11.59
2022-09-14T19:46:52.509Z,11.45
2022-09-14T19:49:23.928Z,11.35
2022-09-14T19:51:53.397Z,11.25
2022-09-14T19:54:22.299Z,11.20
2022-09-14T19:56:52.458Z,10.98
2022-09-14T19:59:21.114Z,10.99
2022-09-14T20:01:51.268Z,10.84
2022-09-14T20:04:20.647Z,10.77
2022-09-14T20:06:49.349Z,10.71
2022-09-14T20:09:20.298Z,10.70
2022-09-14T20:11:50.428Z,10.55
2022-09-14T20:14:22.358Z,10.36
2022-09-14T20:16:52.909Z,10.51
2022-09-14T20:19:23.087Z,10.62
2022-09-14T20:21:53.327Z,10.58
2022-09-14T20:24:26.088Z,10.59
2022-09-14T20:26:57.323Z,10.71
2022-09-14T20:29:30.900Z,10.74
2022-09-14T20:32:00.397Z,10.85
2022-09-14T20:34:29.518Z,10.90
2022-09-14T20:37:00.405Z,10.84
2022-09-14T20:39:30.023Z,10.82
2022-09-14T20:41:58.703Z,10.73
2022-09-14T20:44:28.799Z,10.79
2022-09-14T20:46:57.638Z,10.84
2022-09-14T20:49:26.916Z,10.96
2022-09-14T20:51:57.502Z,10.92
2022-09-14T20:54:26.423Z,10.96
2022-09-14T20:56:55.114Z,10.84
2022-09-14T20:59:23.899Z,10.77
2022-09-14T21:01:54.294Z,10.83
2022-09-14T21:04:26.401Z,10.86
2022-09-14T21:06:56.230Z,10.84
2022-09-14T21:09:26.515Z,10.89
2022-09-14T21:11:55.700Z,10.96
2022-09-14T21:14:24.725Z,10.95
2022-09-14T21:16:56.984Z,10.93
2022-09-14T21:19:28.420Z,10.95
2022-09-14T21:21:57.206Z,11.04
2022-09-14T21:24:26.083Z,11.03
2022-09-14T21:26:54.898Z,11.00
2022-09-14T21:29:24.808Z,11.03
2022-09-14T21:31:55.019Z,11.04
2022-09-14T21:34:23.878Z,11.02
2022-09-14T21:36:53.637Z,11.05
2022-09-14T21:39:24.457Z,11.13
2022-09-14T21:41:58.465Z,11.12
2022-09-14T21:44:31.377Z,11.14
2022-09-14T21:47:02.203Z,11.11
2022-09-14T21:49:30.998Z,11.21
2022-09-14T21:51:59.681Z,11.28
2022-09-14T21:54:28.399Z,11.34
2022-09-14T21:56:57.265Z,11.49
2022-09-14T21:59:26.085Z,11.40
2022-09-14T22:01:54.907Z,11.35
2022-09-14T22:04:27.077Z,11.40
2022-09-14T22:06:57.366Z,11.51
2022-09-14T22:09:28.498Z,11.45
2022-09-14T22:11:57.981Z,11.33
2022-09-14T22:14:28.450Z,11.35
2022-09-14T22:16:57.351Z,11.15
2022-09-14T22:19:28.515Z,11.25
2022-09-14T22:21:57.349Z,11.06
2022-09-14T22:24:28.210Z,10.96
2022-09-14T22:26:57.573Z,10.86
2022-09-14T22:29:26.388Z,10.97
2022-09-14T22:31:55.483Z,11.01
2022-09-14T22:34:24.687Z,10.86
2022-09-14T22:36:54.726Z,10.86
2022-09-14T22:39:23.440Z,10.62
2022-09-14T22:41:52.195Z,10.75
2022-09-14T22:44:20.676Z,10.54
2022-09-14T22:46:49.302Z,10.64
2022-09-14T22:49:17.938Z,10.62
2022-09-14T22:51:47.636Z,10.53
2022-09-14T22:54:18.376Z,10.50
2022-09-14T22:56:46.929Z,10.46
2022-09-14T22:59:15.477Z,10.40
2022-09-14T23:01:44.289Z,10.19
2022-09-14T23:04:14.264Z,10.12
2022-09-14T23:06:44.919Z,10.07
2022-09-14T23:09:16.345Z,10.06
2022-09-14T23:11:47.224Z,10.17
2022-09-14T23:14:16.265Z,10.14
2022-09-14T23:16:45.904Z,10.20
2022-09-14T23:19:17.321Z,9.95
2022-09-14T23:21:46.723Z,9.99
2022-09-14T23:24:16.003Z,10.02
2022-09-14T23:26:44.836Z,10.05
2022-09-14T23:29:17.212Z,9.94
2022-09-14T23:31:46.353Z,9.88
2022-09-14T23:34:15.363Z,9.81
2022-09-14T23:36:44.013Z,9.97
2022-09-14T23:39:12.615Z,9.98
2022-09-14T23:41:41.202Z,9.94
2022-09-14T23:44:11.018Z,9.97
2022-09-14T23:46:41.269Z,10.16
2022-09-14T23:49:12.513Z,9.97
2022-09-14T23:51:42.286Z,9.96
2022-09-14T23:54:11.790Z,9.82
2022-09-14T23:56:40.297Z,9.86
2022-09-14T23:59:08.910Z,9.57
